M I D A S
Marine Information and Data Acquisition System
Tripno 1183 of the Zeeleeuw from 2006-12-22 08:53:50 to 2006-12-22 12:16:46
Back to CruiseResearch ActivitiesStationsMapUnderway DataData graphs

EquipmentUnitsComment
TimeDGPSUTC
LatitudeDGPSDM.mWGS84
LongitudeDGPSDM.mWGS84
HeadingGyrodeg 
SOGDGPSknotsSpeed over ground
COGDGPSdegCourse over ground
DepthEcho soundermeters200 kHz
Missing or incorrect values are displayed as -999
Navigation data collected by the RV Zeeleeuw from 2006-12-22 07:35:38 to 2006-12-22 12:28:48
Time Latitude Longitude Heading SOG COG Depth
2006-12-22 07:36:44 51°13.611 2°56.036 113.2 3.7 290 -999
2006-12-22 07:37:43 51°13.648 2°55.924 128.7 5.7 305 -999
2006-12-22 07:38:43 51°13.707 2°55.802 123.3 5.6 301 -999
2006-12-22 07:39:43 51°13.729 2°55.702 96.5 1.9 283 4.8
2006-12-22 07:40:43 51°13.735 2°55.707 40.3 1.6 223 -999
2006-12-22 07:41:43 51°13.747 2°55.691 352.2 3.8 344 4.9
2006-12-22 07:42:43 51°13.845 2°55.625 339.4 8 335 9.2
2006-12-22 07:43:43 51°13.979 2°55.527 340.4 9.2 336 -999
2006-12-22 07:44:43 51°14.105 2°55.435 338.9 8.4 334 -999
2006-12-22 07:45:44 51°14.229 2°55.316 327 8.6 321 -999
2006-12-22 07:46:43 51°14.326 2°55.134 310.8 10.2 306 9.8
2006-12-22 07:47:43 51°14.411 2°54.874 295.4 12.1 286 8.9
2006-12-22 07:48:43 51°14.435 2°54.536 278.4 13.5 269 9
2006-12-22 07:49:43 51°14.349 2°54.2 242.8 14 238 7.8
2006-12-22 07:50:43 51°14.249 2°53.865 256.3 14.1 252 7.8
2006-12-22 07:51:43 51°14.155 2°53.516 246.7 14.4 242 8.1
2006-12-22 07:52:43 51°14.061 2°53.159 254.8 14.7 248 8.5
2006-12-22 07:53:43 51°13.959 2°52.8 252.5 15 247 9
2006-12-22 07:54:43 51°13.854 2°52.44 249.7 15.1 245 9.2
2006-12-22 07:55:43 51°13.745 2°52.083 248.8 15 243 9.3
2006-12-22 07:56:43 51°13.634 2°51.728 249 15 245 9.5
2006-12-22 07:57:43 51°13.516 2°51.378 243.7 15 240 9.7
2006-12-22 07:58:43 51°13.388 2°51.033 244.5 15.1 239 9.8
2006-12-22 07:59:43 51°13.259 2°50.687 242.5 15.2 238 9.9
2006-12-22 08:00:43 51°13.125 2°50.346 241.8 15.2 238 10
2006-12-22 08:01:43 51°12.992 2°50.008 242 15.1 238 10.2
2006-12-22 08:02:43 51°12.859 2°49.668 242.4 15.1 238 10.3
2006-12-22 08:03:43 51°12.722 2°49.327 241.8 15.3 238 10.5
2006-12-22 08:04:43 51°12.586 2°48.977 242.4 15.6 238 10.6
2006-12-22 08:05:43 51°12.449 2°48.629 242 15.5 237 10.7
2006-12-22 08:06:43 51°12.314 2°48.28 242.4 15.4 238 10.7
2006-12-22 08:07:43 51°12.177 2°47.934 242.3 15.5 238 10.7
2006-12-22 08:08:43 51°12.045 2°47.585 243 15.4 239 10.6
2006-12-22 08:09:43 51°11.911 2°47.236 242.9 15.5 239 10.4
2006-12-22 08:10:43 51°11.78 2°46.889 242.4 15.2 240 10.1
2006-12-22 08:11:43 51°11.649 2°46.545 242.2 15.1 239 9.9
2006-12-22 08:12:43 51°11.519 2°46.202 242.6 15 240 9.6
2006-12-22 08:13:43 51°11.403 2°45.852 251.3 15 247 9.3
2006-12-22 08:14:43 51°11.305 2°45.485 250.4 15.1 246 9.3
2006-12-22 08:15:43 51°11.218 2°45.112 257.9 15 253 9.4
2006-12-22 08:16:43 51°11.144 2°44.73 259.1 15.1 255 9.6
2006-12-22 08:17:43 51°11.079 2°44.343 259.1 15.2 254 9.8
2006-12-22 08:18:43 51°11.013 2°43.956 260.2 15.1 256 10
2006-12-22 08:19:43 51°10.951 2°43.566 260.7 15.2 257 10.2
2006-12-22 08:20:43 51°10.889 2°43.177 260.6 15.2 256 10.4
2006-12-22 08:21:43 51°10.826 2°42.788 260.1 15.2 256 10.6
2006-12-22 08:22:43 51°10.765 2°42.397 260.5 15.2 256 10.7
2006-12-22 08:23:43 51°10.704 2°42.007 260.2 15.2 256 10.8
2006-12-22 08:24:43 51°10.643 2°41.618 259.8 15.2 255 11
2006-12-22 08:25:43 51°10.581 2°41.229 260.5 15.2 256 11.1
2006-12-22 08:26:43 51°10.523 2°40.838 260.9 15.2 257 11.2
2006-12-22 08:27:43 51°10.464 2°40.446 260.5 15.1 257 11.7
2006-12-22 08:28:43 51°10.405 2°40.054 260.8 15.2 258 12.2
2006-12-22 08:29:43 51°10.35 2°39.66 261 15.3 257 12.8
2006-12-22 08:30:43 51°10.294 2°39.265 261.5 15.3 258 13.8
2006-12-22 08:31:43 51°10.236 2°38.869 261.2 15.3 257 14.4
2006-12-22 08:32:43 51°10.18 2°38.473 261.2 15.3 257 14.5
2006-12-22 08:33:43 51°10.125 2°38.076 262.8 15.3 259 15.7
2006-12-22 08:34:43 51°10.078 2°37.678 263.6 15.2 260 16.3
2006-12-22 08:35:43 51°10.032 2°37.28 263 15.4 259 16.5
2006-12-22 08:36:43 51°9.984 2°36.878 263.8 15.4 259 16.7
2006-12-22 08:37:43 51°9.944 2°36.475 265.4 15.4 261 16.8
2006-12-22 08:38:43 51°9.938 2°36.076 282.1 14.9 279 17
2006-12-22 08:39:43 51°10.028 2°35.717 300.7 14.4 298 15.4
2006-12-22 08:40:43 51°10.191 2°35.48 338.9 13 337 9.8
2006-12-22 08:41:43 51°10.401 2°35.475 16.6 12.6 16 10
2006-12-22 08:42:43 51°10.577 2°35.645 40.5 12.4 36 9.4
2006-12-22 08:43:43 51°10.746 2°35.838 39.9 12.5 36 9.8
2006-12-22 08:44:43 51°10.915 2°36.034 40.3 12.6 36 9.9
2006-12-22 08:45:43 51°11.083 2°36.234 41.3 12.6 37 10.2
2006-12-22 08:46:43 51°11.25 2°36.434 41.2 12.6 37 10.6
2006-12-22 08:47:43 51°11.423 2°36.623 38.7 12.6 35 10.7
2006-12-22 08:48:43 51°11.595 2°36.813 39.3 12.6 35 10.8
2006-12-22 08:49:43 51°11.768 2°37.001 38.2 12.6 33 10.7
2006-12-22 08:50:43 51°11.946 2°37.177 37.3 12.5 32 10.9
2006-12-22 08:51:43 51°12.127 2°37.342 35.2 12.6 30 10.5
2006-12-22 08:52:43 51°12.309 2°37.508 35.4 12.5 30 11
2006-12-22 08:53:43 51°12.491 2°37.671 35.2 12.5 29 11.4
2006-12-22 08:54:43 51°12.674 2°37.835 35.4 12.6 30 11.9
2006-12-22 08:55:43 51°12.857 2°37.998 35.5 12.6 29 12.4
2006-12-22 08:56:43 51°13.041 2°38.16 35.1 12.7 29 12.9
2006-12-22 08:57:43 51°13.227 2°38.321 34.9 12.7 29 13.3
2006-12-22 08:58:43 51°13.411 2°38.483 35.4 12.6 29 13.6
2006-12-22 08:59:43 51°13.602 2°38.63 31.5 12.8 25 13.6
2006-12-22 09:00:43 51°13.795 2°38.771 29.8 12.8 19 12.9
2006-12-22 09:01:43 51°14.006 2°38.8 3 13 349 11.2
2006-12-22 09:02:43 51°14.19 2°38.607 323.2 14.1 309 14.7
2006-12-22 09:03:43 51°14.249 2°38.246 274.7 14.9 264 17.5
2006-12-22 09:04:43 51°14.168 2°37.865 251.8 15.4 248 18.4
2006-12-22 09:05:43 51°14.074 2°37.483 254.5 15.5 250 18.8
2006-12-22 09:06:43 51°13.985 2°37.1 252 15.4 248 18.7
2006-12-22 09:07:43 51°13.884 2°36.723 250.9 15.5 247 18.4
2006-12-22 09:08:43 51°13.784 2°36.346 250 15.4 247 18.5
2006-12-22 09:09:43 51°13.672 2°35.976 246.7 15.5 245 17.8
2006-12-22 09:10:43 51°13.558 2°35.61 246.9 15.4 243 14.9
2006-12-22 09:11:43 51°13.444 2°35.242 247.7 15.4 244 16
2006-12-22 09:12:43 51°13.33 2°34.876 247.3 15.4 244 15.8
2006-12-22 09:13:43 51°13.217 2°34.515 247.6 15.3 244 15
2006-12-22 09:14:43 51°13.105 2°34.154 248.1 15.2 243 14.7
2006-12-22 09:15:43 51°12.995 2°33.793 248.8 15 244 13.1
2006-12-22 09:16:43 51°12.888 2°33.433 249.5 15.1 244 14.1
2006-12-22 09:17:43 51°12.779 2°33.073 248.9 15 244 15.8
2006-12-22 09:18:43 51°12.669 2°32.713 249.4 15.1 245 18.1
2006-12-22 09:19:43 51°12.559 2°32.348 249.1 15.5 244 21.1
2006-12-22 09:20:43 51°12.447 2°31.979 249.6 15.6 244 21.6
2006-12-22 09:21:43 51°12.335 2°31.608 249.9 15.6 244 23.2
2006-12-22 09:22:43 51°12.221 2°31.236 248.7 15.6 244 22.9
2006-12-22 09:23:43 51°12.106 2°30.862 248.9 15.7 244 22.1
2006-12-22 09:24:43 51°11.991 2°30.489 249.2 15.7 244 21.9
2006-12-22 09:25:43 51°11.876 2°30.113 249.4 15.8 244 22.2
2006-12-22 09:26:43 51°11.761 2°29.738 249.1 15.8 244 22.3
2006-12-22 09:27:43 51°11.654 2°29.357 251.7 15.7 246 22.9
2006-12-22 09:28:43 51°11.553 2°28.972 253.6 15.6 249 23.7
2006-12-22 09:29:43 51°11.459 2°28.584 254.3 15.7 249 21.6
2006-12-22 09:30:43 51°11.364 2°28.196 253.1 15.6 249 22.2
2006-12-22 09:31:43 51°11.274 2°27.806 253.6 15.7 251 22.2
2006-12-22 09:32:43 51°11.27 2°27.407 289.5 15 286 22.1
2006-12-22 09:33:43 51°11.432 2°27.147 340.8 13.6 340 16.9
2006-12-22 09:34:43 51°11.652 2°27.151 15.3 13.2 10 10
2006-12-22 09:35:43 51°11.865 2°27.199 11.4 12.9 3 8.2
2006-12-22 09:36:43 51°12.081 2°27.198 9.6 13.7 4 9.6
2006-12-22 09:37:43 51°12.303 2°27.236 20.6 13.3 16 11.6
2006-12-22 09:38:43 51°12.498 2°27.393 35.5 13 29 14
2006-12-22 09:39:43 51°12.685 2°27.569 38.5 13 32 17.8
2006-12-22 09:40:43 51°12.871 2°27.748 37.1 13 30 19.5
2006-12-22 09:41:43 51°13.049 2°27.943 41.9 13 36 20.2
2006-12-22 09:42:43 51°13.224 2°28.142 41.5 12.9 35 21.7
2006-12-22 09:43:43 51°13.396 2°28.348 43.4 12.9 37 20.6
2006-12-22 09:44:43 51°13.568 2°28.554 43.2 13 37 19.5
2006-12-22 09:45:43 51°13.742 2°28.758 42.6 13 37 18.9
2006-12-22 09:46:43 51°13.916 2°28.963 42.5 13 36 18.5
2006-12-22 09:47:43 51°14.09 2°29.166 42 13.1 36 17.9
2006-12-22 09:48:43 51°14.263 2°29.372 42.8 13 37 18.6
2006-12-22 09:49:43 51°14.436 2°29.577 42.4 13 36 18.7
2006-12-22 09:50:43 51°14.609 2°29.781 42.3 12.9 36 20.7
2006-12-22 09:51:43 51°14.781 2°29.984 43 12.8 37 21.3
2006-12-22 09:52:43 51°14.955 2°30.185 42.3 12.8 36 24.9
2006-12-22 09:53:43 51°15.128 2°30.382 42.5 12.8 36 25.9
2006-12-22 09:54:43 51°15.3 2°30.58 42.1 12.8 36 26.1
2006-12-22 09:55:43 51°15.473 2°30.777 42.3 12.8 35 27.1
2006-12-22 09:56:43 51°15.645 2°30.974 42.8 12.8 35 27.2
2006-12-22 09:57:43 51°15.818 2°31.173 42.8 12.8 36 27
2006-12-22 09:58:43 51°15.992 2°31.371 41.8 12.8 35 26.9
2006-12-22 09:59:43 51°16.166 2°31.57 42.3 12.8 36 26.9
2006-12-22 10:00:43 51°16.338 2°31.771 42.1 12.8 36 27.3
2006-12-22 10:01:43 51°16.508 2°31.975 42.1 12.8 38 26.7
2006-12-22 10:02:43 51°16.678 2°32.177 42.3 12.8 37 25.8
2006-12-22 10:03:43 51°16.849 2°32.38 42.1 12.8 37 26
2006-12-22 10:04:43 51°17.018 2°32.585 42.6 12.6 38 25.7
2006-12-22 10:05:43 51°17.186 2°32.79 42.1 12.7 37 25.4
2006-12-22 10:06:43 51°17.355 2°32.994 42.1 12.6 37 27
2006-12-22 10:07:43 51°17.524 2°33.194 42.3 12.6 37 27.3
2006-12-22 10:08:43 51°17.69 2°33.395 42 12.6 37 27.3
2006-12-22 10:09:43 51°17.858 2°33.595 41.7 12.7 36 27.6
2006-12-22 10:10:43 51°18.028 2°33.796 42 12.7 38 26.4
2006-12-22 10:11:43 51°18.198 2°33.999 42.2 12.7 37 26.4
2006-12-22 10:12:43 51°18.366 2°34.204 42.2 12.6 38 23.1
2006-12-22 10:13:43 51°18.533 2°34.411 42.2 12.6 38 19.3
2006-12-22 10:14:43 51°18.7 2°34.617 43.1 12.7 38 21.6
2006-12-22 10:15:43 51°18.867 2°34.823 42.8 12.7 39 21
2006-12-22 10:16:43 51°19.033 2°35.03 42.2 12.7 38 19.9
2006-12-22 10:17:43 51°19.2 2°35.238 43 12.7 38 20.1
2006-12-22 10:18:43 51°19.368 2°35.445 41.6 12.7 38 20.2
2006-12-22 10:19:43 51°19.533 2°35.654 42.7 12.6 39 19.8
2006-12-22 10:20:43 51°19.701 2°35.859 42.5 12.7 37 21.1
2006-12-22 10:21:43 51°19.868 2°36.066 42.1 12.7 38 20.6
2006-12-22 10:22:43 51°20.033 2°36.276 42 12.7 39 20.3
2006-12-22 10:23:43 51°20.198 2°36.485 42.5 12.7 38 22.1
2006-12-22 10:24:43 51°20.364 2°36.696 42.8 12.7 38 21.3
2006-12-22 10:25:43 51°20.529 2°36.907 42.3 12.7 38 22.6
2006-12-22 10:26:43 51°20.694 2°37.117 41.9 12.6 38 22.8
2006-12-22 10:27:43 51°20.863 2°37.318 37 12.7 26 24.2
2006-12-22 10:28:43 51°21.067 2°37.417 20.8 12.9 15 25.2
2006-12-22 10:29:43 51°21.274 2°37.504 21 12.9 14 24.6
2006-12-22 10:30:43 51°21.483 2°37.575 14 13 6 26.3
2006-12-22 10:31:43 51°21.699 2°37.604 12.8 13 4 28.1
2006-12-22 10:32:43 51°21.916 2°37.637 13 13.1 6 30.6
2006-12-22 10:33:43 51°22.133 2°37.67 12.8 13 5 30.3
2006-12-22 10:34:43 51°22.349 2°37.702 12.5 13.1 5 31.2
2006-12-22 10:35:43 51°22.566 2°37.737 13.3 13.2 6 31.1
2006-12-22 10:36:43 51°22.783 2°37.772 12.7 13.1 5 30.5
2006-12-22 10:37:43 51°23.001 2°37.809 13 13.2 6 29.9
2006-12-22 10:38:43 51°23.219 2°37.845 13 13.2 6 27.3
2006-12-22 10:39:43 51°23.433 2°37.906 20.3 13 15 27.2
2006-12-22 10:40:43 51°23.64 2°38.005 24.3 13 17 23.4
2006-12-22 10:41:43 51°23.846 2°38.109 23.9 13 17 24.9
2006-12-22 10:42:43 51°24.044 2°38.238 35 12.7 33 24.4
2006-12-22 10:43:43 51°24.194 2°38.475 52.9 12.8 50 25.2
2006-12-22 10:44:43 51°24.334 2°38.732 51.9 12.8 48 26.3
2006-12-22 10:45:43 51°24.461 2°39.006 62.1 12.9 60 25.9
2006-12-22 10:46:43 51°24.569 2°39.306 63.8 12.9 60 26.2
2006-12-22 10:47:43 51°24.68 2°39.602 62.8 13 59 27.1
2006-12-22 10:48:43 51°24.792 2°39.899 62 13 58 27.5
2006-12-22 10:49:43 51°24.906 2°40.195 61.6 13 58 25.7
2006-12-22 10:50:43 51°25.011 2°40.497 71.1 13 73 27.6
2006-12-22 10:51:43 51°25.047 2°40.842 84.1 13.2 82 27.8
2006-12-22 10:52:43 51°25.064 2°41.195 90.8 13.3 89 26.3
2006-12-22 10:53:43 51°25.063 2°41.551 92.4 13.3 91 26.7
2006-12-22 10:54:43 51°25.059 2°41.908 92.5 13.4 91 25.9
2006-12-22 10:55:43 51°25.057 2°42.264 92.8 13.3 91 26.6
2006-12-22 10:56:43 51°25.052 2°42.619 92.8 13.4 91 22.9
2006-12-22 10:57:43 51°25.048 2°42.974 92.1 13.4 91 24.6
2006-12-22 10:58:43 51°25.044 2°43.329 93.5 13.4 92 21.3
2006-12-22 10:59:43 51°25.02 2°43.684 102.3 13.6 102 24.1
2006-12-22 11:00:43 51°24.96 2°44.033 109.2 13.6 110 22.5
2006-12-22 11:01:43 51°24.884 2°44.376 110.6 13.7 110 23.4
2006-12-22 11:02:43 51°24.806 2°44.72 110.6 13.9 114 26.5
2006-12-22 11:03:43 51°24.674 2°45.025 127.8 14.2 126 26
2006-12-22 11:04:43 51°24.537 2°45.326 127 14 123 27.3
2006-12-22 11:05:43 51°24.403 2°45.631 125.7 14.1 126 27.3
2006-12-22 11:06:43 51°24.269 2°45.937 125.9 14.1 125 26.9
2006-12-22 11:07:43 51°24.12 2°46.222 134.4 13.9 136 29.8
2006-12-22 11:08:43 51°23.93 2°46.435 146.7 14 147 29.1
2006-12-22 11:09:43 51°23.724 2°46.618 152.8 14.1 150 27.9
2006-12-22 11:10:43 51°23.518 2°46.803 151.7 14.2 151 25.8
2006-12-22 11:11:43 51°23.311 2°46.989 152.4 14.2 151 21.5
2006-12-22 11:12:43 51°23.089 2°47.126 164.5 14.5 165 21.6
2006-12-22 11:13:43 51°22.856 2°47.217 166.8 14.4 165 21.5
2006-12-22 11:14:43 51°22.62 2°47.279 177.9 14.4 177 18.6
2006-12-22 11:15:43 51°22.38 2°47.253 195.2 14.3 203 19.6
2006-12-22 11:16:43 51°22.256 2°46.948 250.9 14.2 245 17
2006-12-22 11:17:43 51°22.157 2°46.604 248.9 14.3 244 21.9
2006-12-22 11:18:43 51°22.03 2°46.284 238 14.4 229 22.6
2006-12-22 11:19:43 51°21.835 2°46.07 207.8 14.3 200 23.9
2006-12-22 11:20:43 51°21.602 2°46.092 168.5 14.4 161 26.3
2006-12-22 11:21:43 51°21.381 2°46.231 161.1 14.1 158 26.6
2006-12-22 11:22:43 51°21.16 2°46.377 158.6 14.3 154 26.3
2006-12-22 11:23:43 51°20.944 2°46.539 157.5 14.3 155 25
2006-12-22 11:24:43 51°20.724 2°46.679 165.4 14.2 163 21.4
2006-12-22 11:25:43 51°20.499 2°46.776 168.6 14.1 166 18.2
2006-12-22 11:26:43 51°20.267 2°46.811 186 14.1 185 18.3
2006-12-22 11:27:43 51°20.036 2°46.734 200 14.3 196 18.9
2006-12-22 11:28:43 51°19.807 2°46.627 198 14.3 198 20.1
2006-12-22 11:29:43 51°19.578 2°46.527 198.6 14.4 196 21.3
2006-12-22 11:30:43 51°19.35 2°46.415 203.2 14.2 202 21.6
2006-12-22 11:31:43 51°19.137 2°46.24 212.5 14.3 209 21.9
2006-12-22 11:32:43 51°18.931 2°46.054 213.7 14.1 210 22.7
2006-12-22 11:33:43 51°18.724 2°45.875 213.1 14.2 209 21.9
2006-12-22 11:34:43 51°18.517 2°45.697 212.9 14.2 208 22.2
2006-12-22 11:35:43 51°18.311 2°45.518 212.6 14.1 208 21.9
2006-12-22 11:36:43 51°18.105 2°45.343 212.5 13.9 209 21.1
2006-12-22 11:37:43 51°17.899 2°45.174 212.2 14 208 20.1
2006-12-22 11:38:43 51°17.694 2°45.006 212.5 14 207 19.1
2006-12-22 11:39:43 51°17.489 2°44.829 213.4 14 208 19.1
2006-12-22 11:40:43 51°17.283 2°44.659 212 14 208 18.1
2006-12-22 11:41:43 51°17.076 2°44.49 211.3 14 208 18.1
2006-12-22 11:42:43 51°16.87 2°44.319 213 14 208 17.3
2006-12-22 11:43:43 51°16.663 2°44.149 212.1 14 207 16.6
2006-12-22 11:44:43 51°16.441 2°44.053 191.3 14.1 182 15.5
2006-12-22 11:45:43 51°16.22 2°44.157 154.9 14.4 146 13.8
2006-12-22 11:46:43 51°16.079 2°44.444 116.1 14.2 106 13
2006-12-22 11:47:43 51°16.068 2°44.823 91.6 14.5 91 12.7
2006-12-22 11:48:43 51°16.057 2°45.207 95.3 14.5 95 13.3
2006-12-22 11:49:43 51°16.039 2°45.593 97.5 14.6 95 12.5
2006-12-22 11:50:43 51°16.017 2°45.981 99.5 14.6 96 13.8
2006-12-22 11:51:43 51°15.989 2°46.368 100.6 14.6 97 16.5
2006-12-22 11:52:43 51°15.96 2°46.756 102 14.8 98 18.3
2006-12-22 11:53:43 51°15.93 2°47.144 102.2 14.8 97 18.8
2006-12-22 11:54:43 51°15.898 2°47.532 101.8 14.7 97 18.3
2006-12-22 11:55:43 51°15.866 2°47.92 102 14.7 97 17
2006-12-22 11:56:43 51°15.834 2°48.307 101 14.7 98 15.4
2006-12-22 11:57:43 51°15.8 2°48.695 102.7 14.7 98 13.9
2006-12-22 11:58:43 51°15.764 2°49.082 102 14.7 98 12.9
2006-12-22 11:59:43 51°15.728 2°49.469 103.1 14.9 100 13.4
2006-12-22 12:00:43 51°15.688 2°49.855 103.2 14.7 99 15.1
2006-12-22 12:01:43 51°15.643 2°50.241 105.3 14.9 100 15.3
2006-12-22 12:02:43 51°15.602 2°50.622 105.9 14.5 100 15.3
2006-12-22 12:03:43 51°15.555 2°50.999 107.7 14.5 102 15.3
2006-12-22 12:04:43 51°15.496 2°51.371 111.5 14.3 107 15.1
2006-12-22 12:05:43 51°15.419 2°51.731 118.8 14.1 117 14.8
2006-12-22 12:06:43 51°15.309 2°52.065 124.6 14.3 119 14.3
2006-12-22 12:07:43 51°15.193 2°52.397 124.4 14.3 118 13.5
2006-12-22 12:08:43 51°15.085 2°52.733 123 13.1 116 13.1
2006-12-22 12:09:43 51°15.003 2°53.003 123.1 12 116 12.9
2006-12-22 12:10:43 51°14.912 2°53.301 122.6 12.5 116 12.8
2006-12-22 12:11:43 51°14.818 2°53.6 121.9 12.7 115 13.3
2006-12-22 12:12:43 51°14.729 2°53.904 123.3 12.8 115 12.9
2006-12-22 12:13:43 51°14.638 2°54.207 122.7 12.7 114 13.7
2006-12-22 12:14:43 51°14.551 2°54.516 122.5 12.8 114 13.1
2006-12-22 12:15:43 51°14.465 2°54.826 123.8 12.8 115 13
2006-12-22 12:16:43 51°14.356 2°55.115 131.1 12 130 12.7
2006-12-22 12:17:44 51°14.239 2°55.302 138.7 9 140 -999
2006-12-22 12:18:43 51°14.116 2°55.423 154.8 8.5 154 -999
2006-12-22 12:19:44 51°13.999 2°55.509 156.9 7.1 156 -999
2006-12-22 12:20:43 51°13.895 2°55.584 156.9 6.8 155 -999
2006-12-22 12:21:43 51°13.796 2°55.664 149.7 6.5 147 -999
2006-12-22 12:22:44 51°13.716 2°55.782 131.6 6.6 132 -999
2006-12-22 12:23:44 51°13.658 2°55.907 123.7 5.1 123 -999
2006-12-22 12:24:44 51°13.62 2°56.012 118.9 4.1 117 -999
2006-12-22 12:25:43 51°13.602 2°56.083 116.8 1 111 -999
2006-12-22 12:26:43 51°13.6 2°56.09 122.6 0.4 127 -999
2006-12-22 12:27:43 51°13.597 2°56.095 123.1 0.2 97 -999
2006-12-22 12:28:43 51°13.598 2°56.094 125.9 0.2 131 -999